Binscarth, Canada
Current Conditions -  °F | °C
As of 1:00 PM on Tuesday 21 Oct 2014 (Local Time) from CYDN Reporting Station
Clear Clear  
Wind Chill: 70°   Ceiling: Unl
Heat Index: 70°   Visibility: 9mi
Dew Point: 39°   Wind: 5mph
Humidity: 33%   Direction: 130°SE
Pressure: 29.74"   Gusts: 17mph
Location:  50.62°N, 101.28°W
Report Text: CYDN 211800Z AUTO 13004G15KT 110V230 9SM CLR 21/04 A2974 RMK SLP077 DENSITY ALT 2100FT
Loading
Personal Weather Stations






























Interactive Weather Map
Tropical Storm Tracking
New forecast layout! Learn more

10-Day Weather Forecast

Advertisements
Track Severe Weather on mobile